Time;durP1;ratioP1;P1;durP2;ratioP2;P2;SDS_P1;SDS_P2;PMS_P1;PMS_P2;Temp;Humidity;BMP_temperature;BMP_pressure;BME280_temperature;BME280_humidity;BME280_pressure;Samples;Min_cycle;Max_cycle;Signal;HPM_P1;HPM_P2
2022/08/24 00:01:16;;;;;;;4.80;4.40;;;16.90;85.80;;;16.54;73.78;98184.31;5053746;28;20448;-75
2022/08/24 00:03:46;;;;;;;4.73;4.43;;;16.80;86.60;;;16.59;73.72;98189.81;5063777;28;20468;-76
2022/08/24 00:06:17;;;;;;;4.50;4.10;;;16.80;86.80;;;16.50;74.52;98183.16;5056167;28;20956;-75
2022/08/24 00:08:48;;;;;;;5.20;4.80;;;16.70;86.90;;;16.60;74.01;98185.22;5057771;28;20456;-75
2022/08/24 00:11:16;;;;;;;4.90;4.40;;;16.80;86.90;;;16.55;74.19;98177.78;5057720;28;20523;-75
2022/08/24 00:13:44;;;;;;;5.07;4.57;;;16.80;87.20;;;16.59;74.32;98184.38;5059872;28;20447;-76
2022/08/24 00:16:13;;;;;;;4.50;4.10;;;16.90;87.10;;;16.53;74.67;98188.13;5060263;28;20836;-78
2022/08/24 00:18:40;;;;;;;5.37;4.87;;;16.90;87.20;;;16.52;74.86;98191.91;5063210;28;20454;-77
2022/08/24 00:21:08;;;;;;;5.43;4.93;;;16.80;87.60;;;16.46;74.77;98182.84;5055809;28;20486;-76
2022/08/24 00:23:36;;;;;;;6.33;4.63;;;16.80;87.70;;;16.46;75.06;98190.22;5053582;28;20561;-74
2022/08/24 00:26:06;;;;;;;4.90;4.40;;;16.70;88.00;;;16.46;75.15;98184.75;5058513;28;20500;-77
2022/08/24 00:28:35;;;;;;;5.30;4.80;;;16.70;88.50;;;16.45;75.33;98180.34;5067891;28;20451;-77
2022/08/24 00:31:03;;;;;;;5.33;4.80;;;16.60;89.00;;;16.35;76.03;98186.47;5083076;28;20495;-77
2022/08/24 00:33:33;;;;;;;5.00;4.70;;;16.50;89.50;;;16.27;76.16;98174.09;5057636;28;20477;-78
2022/08/24 00:36:01;;;;;;;5.70;5.30;;;16.50;90.00;;;16.29;76.49;98182.84;5093089;28;20491;-76
2022/08/24 00:38:29;;;;;;;5.00;4.70;;;16.50;90.10;;;16.23;76.59;98173.78;5069691;28;20452;-76
2022/08/24 00:40:56;;;;;;;5.63;4.43;;;16.40;90.40;;;16.16;77.26;98183.19;5067178;28;20843;-75
2022/08/24 00:43:26;;;;;;;8.27;5.43;;;16.40;90.60;;;16.23;77.02;98172.94;5062255;28;20531;-76
2022/08/24 00:46:08;;;;;;;5.17;4.67;;;16.40;90.60;;;16.23;77.17;98181.13;5062392;28;20448;-75
2022/08/24 00:48:42;;;;;;;5.10;4.60;;;16.50;90.70;;;16.12;77.70;98170.03;5061661;28;20526;-74
2022/08/24 00:51:17;;;;;;;4.67;4.37;;;16.40;90.90;;;16.08;77.77;98184.44;5060016;28;20464;-76
2022/08/24 00:53:49;;;;;;;6.33;5.83;;;16.40;91.30;;;16.02;77.76;98178.06;5058503;28;20464;-76
2022/08/24 00:56:27;;;;;;;5.47;5.07;;;16.40;91.20;;;16.04;78.50;98189.56;5057469;28;20454;-76
2022/08/24 00:59:02;;;;;;;5.27;4.87;;;16.30;91.30;;;16.05;78.24;98183.03;5052562;28;20455;-77
2022/08/24 01:01:33;;;;;;;6.80;5.63;;;16.30;91.40;;;15.96;78.95;98196.22;5059362;28;20470;-77
2022/08/24 01:04:01;;;;;;;6.47;5.30;;;16.20;91.90;;;16.01;78.97;98187.31;5056721;28;20470;-73
2022/08/24 01:06:28;;;;;;;6.00;5.50;;;16.20;92.10;;;15.94;79.06;98187.47;5054247;28;20474;-77
2022/08/24 01:08:56;;;;;;;6.20;5.70;;;16.20;92.10;;;15.86;79.82;98196.84;5060702;28;21239;-74
2022/08/24 01:11:28;;;;;;;6.43;5.50;;;16.10;92.50;;;15.75;80.16;98195.00;5069907;28;20507;-75
2022/08/24 01:13:57;;;;;;;6.00;5.60;;;16.00;92.70;;;15.72;80.11;98187.34;5066379;28;20486;-76
2022/08/24 01:19:26;;;;;;;6.10;5.60;;;16.10;92.90;;;16.08;79.24;98189.88;5042715;28;20479;-77
2022/08/24 01:22:10;;;;;;;4.93;4.60;;;16.20;92.70;;;16.05;79.20;98177.56;5067238;28;20466;-77
2022/08/24 01:24:39;;;;;;;6.27;5.70;;;16.30;92.40;;;15.96;78.76;98179.03;5069119;28;20796;-75
2022/08/24 01:27:10;;;;;;;6.73;6.23;;;16.30;92.00;;;15.99;78.77;98194.91;5060697;28;20491;-76
2022/08/24 01:29:39;;;;;;;6.37;5.83;;;16.20;92.20;;;15.79;79.65;98193.44;5057791;28;20451;-74
2022/08/24 01:32:07;;;;;;;6.23;5.70;;;16.10;92.20;;;15.69;80.00;98188.66;5059364;28;20962;-72
2022/08/24 01:34:35;;;;;;;6.30;5.77;;;16.10;92.50;;;15.60;80.57;98194.75;5060137;28;20478;-77
2022/08/24 01:37:03;;;;;;;6.47;5.80;;;16.00;92.80;;;15.47;81.19;98196.69;5059505;28;20479;-74
2022/08/24 01:39:35;;;;;;;7.47;6.77;;;15.90;93.00;;;15.48;81.23;98192.06;5059431;28;20500;-76
2022/08/24 01:42:04;;;;;;;6.27;5.67;;;15.90;93.30;;;15.46;81.50;98197.75;5063839;28;20465;-76
2022/08/24 01:44:35;;;;;;;8.07;7.33;;;15.80;93.80;;;15.38;81.81;98195.41;5061369;28;20467;-78
2022/08/24 01:47:06;;;;;;;7.40;6.70;;;15.70;93.80;;;15.40;82.14;98193.28;5058853;28;20546;-76
2022/08/24 01:49:37;;;;;;;6.80;6.20;;;15.70;94.20;;;15.27;82.69;98189.78;5056111;28;20461;-78
2022/08/24 01:52:09;;;;;;;7.20;6.50;;;15.60;94.40;;;15.14;82.91;98179.16;5064441;28;20492;-73
2022/08/24 01:54:36;;;;;;;7.37;6.80;;;15.50;94.60;;;15.19;83.30;98186.63;5064791;28;20458;-74
2022/08/24 01:57:06;;;;;;;7.37;6.67;;;15.50;94.90;;;15.22;83.15;98188.84;5063240;28;21020;-76
2022/08/24 01:59:34;;;;;;;7.80;6.23;;;15.60;94.50;;;15.21;83.02;98192.63;5054167;28;20478;-74
2022/08/24 02:02:06;;;;;;;6.97;6.27;;;15.50;94.80;;;15.17;83.39;98189.56;5063948;28;20532;-75
2022/08/24 02:04:35;;;;;;;7.70;6.77;;;15.50;95.00;;;15.11;83.60;98185.09;5058380;28;20544;-76
2022/08/24 02:07:03;;;;;;;7.77;7.07;;;15.50;95.20;;;15.10;83.90;98188.88;5057688;28;20466;-76
2022/08/24 02:09:30;;;;;;;7.20;6.50;;;15.40;95.80;;;15.09;84.28;98189.94;5062553;28;20466;-76
2022/08/24 02:11:58;;;;;;;7.93;7.23;;;15.40;95.60;;;15.05;84.59;98194.22;5066476;28;22146;-75
2022/08/24 02:14:27;;;;;;;7.20;6.50;;;15.40;96.10;;;15.00;84.47;98192.19;5058197;28;22908;-77
2022/08/24 02:16:55;;;;;;;7.43;6.77;;;15.40;95.80;;;15.02;84.21;98193.63;5066524;28;20466;-75
2022/08/24 02:19:24;;;;;;;8.40;7.60;;;15.40;96.30;;;14.98;84.47;98187.00;5066763;28;20596;-75
2022/08/24 02:21:51;;;;;;;8.23;7.63;;;15.40;96.40;;;14.98;84.56;98203.34;5066125;28;20523;-76
2022/08/24 02:24:19;;;;;;;7.73;7.00;;;15.30;96.40;;;14.88;85.50;98197.66;5068903;28;20485;-74
2022/08/24 02:26:48;;;;;;;7.53;7.00;;;15.30;96.80;;;14.83;85.94;98203.00;5063971;28;20462;-75
2022/08/24 02:29:16;;;;;;;7.90;7.20;;;15.20;97.70;;;14.84;85.88;98199.22;5056596;28;20488;-75
2022/08/24 02:31:44;;;;;;;8.17;7.53;;;15.20;97.90;;;14.84;86.49;98201.94;5054284;28;20459;-77
2022/08/24 02:34:12;;;;;;;8.43;7.73;;;15.20;98.10;;;14.91;86.10;98197.19;5068305;28;20526;-75
2022/08/24 02:36:40;;;;;;;8.00;7.40;;;15.20;98.30;;;14.76;86.13;98183.25;5070673;28;20450;-79
2022/08/24 02:39:08;;;;;;;8.00;7.40;;;15.10;97.90;;;14.50;86.48;98156.31;5067899;28;20455;-77
2022/08/24 02:41:37;;;;;;;8.60;7.83;;;15.10;98.90;;;14.70;86.78;98196.72;5058736;28;20479;-72
2022/08/24 02:44:05;;;;;;;8.07;7.47;;;14.90;99.60;;;14.71;86.91;98195.69;5068361;28;20462;-76
2022/08/24 02:46:33;;;;;;;8.73;8.03;;;14.90;99.90;;;14.73;87.01;98207.16;5063741;28;20465;-77
2022/08/24 02:49:03;;;;;;;8.00;7.30;;;14.90;99.90;;;14.69;87.03;98195.06;5053574;28;20961;-74
2022/08/24 02:51:33;;;;;;;10.63;7.80;;;14.90;99.90;;;14.72;86.59;98202.78;5055767;28;20453;-75
2022/08/24 02:54:04;;;;;;;8.43;7.63;;;14.90;99.90;;;14.64;87.24;98203.13;5057266;28;21035;-74
2022/08/24 02:56:32;;;;;;;8.60;7.97;;;14.90;99.90;;;14.68;87.07;98198.84;5074581;28;20515;-76
2022/08/24 02:59:00;;;;;;;8.37;7.63;;;14.90;99.90;;;14.75;86.78;98203.38;5068395;28;20921;-76
2022/08/24 03:01:29;;;;;;;8.50;7.80;;;15.00;99.80;;;14.65;87.42;98203.94;5068964;28;20836;-74
2022/08/24 03:03:57;;;;;;;8.57;7.97;;;15.00;99.80;;;14.48;88.14;98193.78;5050028;28;20459;-76
2022/08/24 03:06:25;;;;;;;8.50;7.80;;;14.90;99.90;;;14.71;87.34;98198.41;5056858;28;20549;-76
2022/08/24 03:08:54;;;;;;;7.90;7.30;;;15.00;99.60;;;14.52;87.65;98205.00;5067707;28;20492;-76
2022/08/24 03:11:21;;;;;;;9.50;8.70;;;15.00;98.80;;;14.43;87.78;98190.94;5070967;28;20454;-76
2022/08/24 03:13:48;;;;;;;8.33;7.73;;;14.90;99.60;;;14.40;88.28;98191.41;5071838;28;20461;-76
2022/08/24 03:16:16;;;;;;;10.13;9.13;;;14.80;99.90;;;14.41;88.29;98193.09;5069432;28;20532;-78
2022/08/24 03:18:43;;;;;;;9.43;8.57;;;14.80;99.90;;;14.43;88.35;98202.63;5069574;28;20454;-76
2022/08/24 03:21:12;;;;;;;8.70;8.00;;;14.80;99.90;;;14.36;88.60;98196.50;5070226;28;20530;-75
2022/08/24 03:23:40;;;;;;;8.30;7.50;;;14.80;99.90;;;14.38;88.24;98199.81;5068189;28;20528;-73
2022/08/24 03:26:09;;;;;;;9.43;8.60;;;14.80;99.90;;;14.27;89.43;98193.31;5057895;28;20489;-75
2022/08/24 03:28:36;;;;;;;10.13;9.13;;;14.70;99.90;;;14.26;89.26;98193.53;5060484;28;20469;-73
2022/08/24 03:31:06;;;;;;;9.27;8.47;;;14.70;99.90;;;14.17;90.09;98177.56;5057661;28;20565;-74
2022/08/24 03:33:33;;;;;;;10.30;8.90;;;14.60;99.90;;;14.26;89.45;98186.22;5055101;28;20512;-75
2022/08/24 03:36:00;;;;;;;9.30;8.53;;;14.70;99.90;;;14.43;89.16;98189.03;5057369;28;20462;-75
2022/08/24 03:38:29;;;;;;;9.03;8.33;;;14.70;99.90;;;14.36;89.50;98191.06;5058535;28;20463;-75
2022/08/24 03:40:57;;;;;;;9.50;8.50;;;14.70;99.90;;;14.38;89.11;98185.38;5056179;28;21104;-74
2022/08/24 03:46:22;;;;;;;10.63;9.70;;;14.70;99.90;;;14.24;89.45;98187.50;5028609;28;20457;-74
2022/08/24 03:48:51;;;;;;;9.37;8.60;;;14.70;99.90;;;14.19;90.47;98193.66;5059911;28;20484;-76
2022/08/24 03:51:22;;;;;;;10.63;9.63;;;14.60;99.90;;;14.05;89.74;98146.03;5054768;28;20464;-75
2022/08/24 03:53:51;;;;;;;10.80;9.90;;;14.70;99.90;;;14.19;89.92;98201.00;5058950;28;20453;-75
2022/08/24 03:56:20;;;;;;;10.43;9.43;;;14.60;99.90;;;14.12;90.39;98201.09;5057342;28;20492;-76
2022/08/24 03:58:48;;;;;;;9.70;8.80;;;14.60;99.90;;;14.07;90.79;98204.50;5063535;28;20527;-76
2022/08/24 04:01:16;;;;;;;9.63;8.83;;;14.50;99.90;;;14.04;91.03;98207.69;5086935;28;20479;-77
2022/08/24 04:03:46;;;;;;;11.40;10.40;;;14.50;99.90;;;13.98;91.28;98214.03;5062963;28;20516;-75
2022/08/24 04:06:16;;;;;;;10.17;9.37;;;14.40;99.90;;;14.02;91.41;98204.34;5055075;28;20827;-77
2022/08/24 04:08:45;;;;;;;11.03;10.13;;;14.50;99.90;;;13.93;91.49;98203.06;5060874;28;20467;-73
2022/08/24 04:11:14;;;;;;;10.17;9.40;;;14.40;99.90;;;14.06;91.25;98200.13;5057373;28;20818;-75
2022/08/24 04:13:45;;;;;;;9.67;8.97;;;14.50;99.90;;;13.93;92.00;98197.63;5093264;28;20946;-78
2022/08/24 04:16:15;;;;;;;11.03;10.00;;;14.40;99.90;;;13.97;92.25;98215.09;5064268;28;20483;-75
2022/08/24 04:18:44;;;;;;;10.57;9.63;;;14.40;99.90;;;14.10;91.37;98204.03;5059904;28;20919;-74
2022/08/24 04:21:18;;;;;;;10.63;9.80;;;14.50;99.90;;;14.20;90.89;98208.06;5064076;28;21069;-74
2022/08/24 04:23:47;;;;;;;9.33;8.57;;;14.50;99.90;;;14.21;90.75;98212.44;5068829;28;20457;-73
2022/08/24 04:26:14;;;;;;;11.03;10.00;;;14.50;99.90;;;14.25;90.55;98213.63;5062465;28;20444;-74
2022/08/24 04:28:44;;;;;;;10.20;9.40;;;14.60;99.90;;;14.28;90.74;98210.44;5062495;28;20987;-74
2022/08/24 04:31:13;;;;;;;10.20;9.30;;;14.60;99.90;;;14.20;91.05;98221.66;5067868;28;20483;-76
2022/08/24 04:33:41;;;;;;;10.97;9.80;;;14.60;99.90;;;14.21;91.34;98226.03;5069721;28;20464;-75
2022/08/24 04:36:10;;;;;;;11.00;10.10;;;14.60;99.90;;;14.20;91.39;98218.94;5056264;28;20557;-74
2022/08/24 04:38:38;;;;;;;10.53;9.57;;;14.60;99.90;;;14.49;90.06;98216.38;5070560;28;20447;-76
2022/08/24 04:41:09;;;;;;;12.10;10.40;;;14.80;99.90;;;14.93;87.03;98224.97;5058434;28;21029;-74
2022/08/24 04:43:36;;;;;;;10.37;9.43;;;15.30;98.80;;;15.15;86.07;98232.53;5057425;28;20458;-76
2022/08/24 04:46:07;;;;;;;14.20;9.50;;;15.50;97.00;;;15.18;84.85;98226.59;5056989;28;20466;-76
2022/08/24 04:48:35;;;;;;;9.80;9.00;;;15.70;94.90;;;15.41;83.76;98236.59;5048877;28;20569;-74
2022/08/24 04:51:06;;;;;;;10.00;9.00;;;15.90;94.10;;;15.54;82.84;98238.22;5052406;28;20462;-79
2022/08/24 04:53:34;;;;;;;9.90;9.00;;;16.10;93.20;;;15.62;83.01;98238.88;5059245;28;20563;-77
2022/08/24 04:56:03;;;;;;;10.80;9.90;;;16.30;92.60;;;15.89;81.51;98254.66;5054940;28;20471;-75
2022/08/24 04:58:31;;;;;;;9.47;8.70;;;16.50;92.10;;;16.03;80.33;98239.69;5060402;28;20473;-78
2022/08/24 05:00:59;;;;;;;9.27;8.63;;;16.80;90.90;;;16.16;79.59;98245.88;5056620;28;21048;-76
2022/08/24 05:03:28;;;;;;;9.33;8.53;;;16.90;90.60;;;16.49;78.63;98252.41;5056484;28;21022;-75
2022/08/24 05:05:55;;;;;;;9.33;8.50;;;17.10;90.10;;;16.85;76.45;98251.06;5056684;28;20463;-76
2022/08/24 05:08:22;;;;;;;9.00;8.37;;;17.60;88.50;;;17.28;74.63;98237.72;5053515;28;20457;-78
2022/08/24 05:10:51;;;;;;;9.80;8.97;;;18.20;87.00;;;17.65;73.09;98243.59;5054848;28;20484;-72
2022/08/24 05:13:18;;;;;;;9.33;8.63;;;18.50;85.90;;;17.63;72.77;98248.50;5050485;28;20451;-71
2022/08/24 05:15:48;;;;;;;9.10;8.33;;;18.70;84.80;;;17.41;72.73;98219.31;5053606;28;20459;-71
2022/08/24 05:18:18;;;;;;;8.13;7.33;;;18.70;84.40;;;17.72;72.16;98246.13;5067484;28;20451;-71
2022/08/24 05:20:47;;;;;;;8.43;7.73;;;18.80;84.20;;;17.61;72.74;98245.19;5053944;28;20995;-71
2022/08/24 05:23:17;;;;;;;14.90;8.77;;;18.70;84.40;;;17.49;72.42;98218.84;5055918;28;20961;-70
2022/08/24 05:25:46;;;;;;;8.83;8.03;;;18.80;84.50;;;18.00;71.48;98253.28;5048747;28;20470;-70
2022/08/24 05:28:13;;;;;;;8.20;7.57;;;19.00;83.80;;;18.05;71.47;98247.06;5054948;28;20468;-70
2022/08/24 05:30:41;;;;;;;9.73;8.93;;;19.10;83.80;;;17.67;72.59;98252.38;5054143;28;21062;-69
2022/08/24 05:33:08;;;;;;;7.83;7.13;;;19.00;83.90;;;18.14;71.47;98252.88;5056118;28;20452;-70
2022/08/24 05:35:38;;;;;;;8.57;7.83;;;19.20;83.80;;;18.58;69.28;98247.22;5057306;28;20555;-68
2022/08/24 05:38:08;;;;;;;8.20;7.50;;;19.80;82.80;;;18.83;68.26;98243.00;5056353;28;20456;-70
2022/08/24 05:40:37;;;;;;;8.10;7.40;;;20.00;82.00;;;18.81;68.60;98245.19;5051712;28;20556;-70
2022/08/24 05:43:05;;;;;;;8.47;7.67;;;20.00;81.80;;;19.35;66.09;98238.66;5050881;28;20985;-70
2022/08/24 05:45:32;;;;;;;8.30;7.70;;;20.30;81.40;;;19.40;66.11;98246.06;5062823;28;20502;-70
2022/08/24 05:48:00;;;;;;;7.80;7.10;;;20.50;80.70;;;19.22;66.18;98261.88;5061755;28;20622;-69
2022/08/24 05:50:27;;;;;;;8.27;7.50;;;20.50;80.40;;;18.34;69.36;98260.41;5081078;28;20556;-69
2022/08/24 05:52:55;;;;;;;10.93;8.47;;;19.60;81.60;;;17.04;74.92;98263.59;5056331;28;20976;-69
2022/08/24 05:55:24;;;;;;;9.57;8.77;;;18.20;83.90;;;16.90;76.19;98263.94;5059071;28;20449;-70
2022/08/24 05:57:51;;;;;;;10.47;9.57;;;17.60;86.50;;;16.90;75.92;98263.94;5058651;28;21123;-69
2022/08/24 06:00:20;;;;;;;9.20;8.40;;;17.40;87.90;;;16.81;76.95;98270.91;5052601;28;20547;-69
2022/08/24 06:02:47;;;;;;;9.37;8.50;;;17.20;89.20;;;16.78;76.77;98269.50;5057639;28;21718;-69
2022/08/24 06:05:15;;;;;;;10.53;9.33;;;17.20;89.70;;;16.65;77.85;98273.41;5055577;28;20492;-70
2022/08/24 06:07:42;;;;;;;9.80;8.80;;;17.00;90.20;;;16.72;77.64;98270.50;5054077;28;20460;-70
2022/08/24 06:10:11;;;;;;;10.50;9.50;;;17.00;90.60;;;16.94;77.07;98275.19;5064338;28;21165;-70
2022/08/24 06:12:40;;;;;;;10.23;9.43;;;17.10;90.40;;;17.07;76.31;98277.59;5048592;28;20581;-70
2022/08/24 06:15:10;;;;;;;10.43;9.53;;;17.30;90.20;;;17.13;75.80;98270.28;5056637;28;20559;-71
2022/08/24 06:17:37;;;;;;;11.20;9.90;;;17.40;89.90;;;17.34;75.18;98274.13;5058920;28;20606;-70
2022/08/24 06:20:06;;;;;;;10.10;9.20;;;17.50;89.60;;;17.36;75.51;98282.88;5086353;28;20708;-67
2022/08/24 06:22:33;;;;;;;10.17;9.27;;;17.60;89.60;;;17.50;74.59;98282.50;5083236;28;20490;-69
2022/08/24 06:27:48;;;;;;;9.57;8.67;;;17.80;88.90;;;17.81;73.98;98278.19;5057378;28;20547;-68
2022/08/24 06:30:15;;;;;;;9.57;8.70;;;17.90;88.80;;;17.91;73.71;98265.75;5056296;28;20466;-70
2022/08/24 06:32:44;;;;;;;10.67;8.80;;;18.10;88.70;;;17.80;73.96;98270.28;5051293;28;20860;-69
2022/08/24 06:35:11;;;;;;;10.10;9.03;;;18.10;88.30;;;17.86;74.17;98271.16;5051646;28;20462;-69
2022/08/24 06:37:38;;;;;;;9.83;8.33;;;18.10;88.60;;;17.95;73.98;98264.13;5053409;28;20494;-70
2022/08/24 06:40:09;;;;;;;9.90;9.20;;;18.20;88.80;;;18.19;73.18;98261.13;5063743;28;20490;-70
2022/08/24 06:42:36;;;;;;;9.90;9.00;;;18.30;88.20;;;18.23;72.93;98262.25;5056518;28;20527;-69
2022/08/24 06:45:05;;;;;;;8.80;8.10;;;18.40;87.90;;;18.19;72.97;98269.31;5090953;28;20529;-69
2022/08/24 06:47:33;;;;;;;9.37;8.67;;;18.40;87.70;;;18.31;72.88;98274.63;5059045;28;20514;-69
2022/08/24 06:50:00;;;;;;;9.33;8.37;;;18.50;87.70;;;18.51;72.43;98283.03;5057937;28;20503;-69
2022/08/24 06:52:28;;;;;;;9.07;8.27;;;18.70;87.60;;;18.64;71.85;98275.44;5057901;28;20461;-69
2022/08/24 06:54:56;;;;;;;9.30;8.60;;;18.80;87.40;;;18.60;71.95;98280.63;5060202;28;20811;-71
2022/08/24 06:57:24;;;;;;;9.13;8.40;;;18.90;87.00;;;18.55;72.19;98270.47;5056842;28;20514;-69
2022/08/24 06:59:51;;;;;;;9.10;8.30;;;18.90;87.00;;;18.64;72.15;98280.91;5069726;28;20905;-69
2022/08/24 07:02:21;;;;;;;8.60;7.87;;;18.90;87.10;;;18.91;71.63;98282.75;5053779;28;20479;-69
2022/08/24 07:04:48;;;;;;;8.50;7.73;;;19.00;87.10;;;19.07;71.00;98286.44;5061415;28;20465;-68
2022/08/24 07:07:16;;;;;;;7.70;7.00;;;19.20;87.10;;;19.09;71.07;98278.78;5072105;28;20445;-70
2022/08/24 07:09:44;;;;;;;7.97;7.37;;;19.20;86.90;;;19.18;70.37;98279.91;5051874;28;20494;-70
2022/08/24 07:12:11;;;;;;;7.23;6.53;;;19.40;86.60;;;19.51;69.96;98288.03;5057572;28;20449;-70
2022/08/24 07:14:40;;;;;;;8.37;7.77;;;19.60;86.50;;;19.68;69.25;98279.59;5057184;28;20499;-70
2022/08/24 07:17:07;;;;;;;7.63;7.03;;;19.80;86.20;;;19.74;68.80;98292.22;5049741;28;20725;-70
2022/08/24 07:19:36;;;;;;;7.90;7.20;;;19.90;85.80;;;19.81;68.14;98279.09;5083030;28;20456;-70
2022/08/24 07:22:04;;;;;;;7.07;6.53;;;20.00;85.20;;;19.83;68.24;98281.56;5051320;28;20478;-71
2022/08/24 07:24:32;;;;;;;7.43;6.73;;;20.10;85.10;;;20.01;67.64;98279.44;5060505;28;20450;-69
2022/08/24 07:27:00;;;;;;;7.70;6.60;;;20.20;85.20;;;20.17;67.09;98278.38;5050041;28;20490;-70
2022/08/24 07:29:28;;;;;;;6.43;5.87;;;20.30;84.80;;;20.23;66.60;98279.19;5055160;28;20472;-70
2022/08/24 07:31:55;;;;;;;7.43;6.83;;;20.40;84.30;;;20.01;67.47;98280.25;5086530;28;20455;-70
2022/08/24 07:34:23;;;;;;;7.17;6.47;;;20.30;84.30;;;20.22;67.08;98281.13;5057873;28;20488;-69
2022/08/24 07:36:53;;;;;;;6.60;6.00;;;20.40;84.40;;;20.06;67.04;98280.25;5051570;28;20953;-68
2022/08/24 07:39:20;;;;;;;7.33;6.70;;;20.40;84.10;;;20.30;66.62;98281.66;5051582;28;20451;-70
2022/08/24 07:41:48;;;;;;;8.40;6.17;;;20.50;84.10;;;20.50;66.47;98275.38;5053976;28;20988;-70
2022/08/24 07:44:16;;;;;;;6.57;5.97;;;20.60;84.10;;;20.67;65.95;98278.66;5049410;28;20470;-75
2022/08/24 07:46:44;;;;;;;5.83;5.43;;;20.80;84.00;;;20.77;65.50;98271.50;5051868;28;20455;-76
2022/08/24 07:49:13;;;;;;;6.23;5.73;;;20.90;84.00;;;20.80;65.06;98277.31;5059324;28;21032;-77
2022/08/24 07:51:42;;;;;;;9.70;6.53;;;21.00;83.30;;;21.01;64.30;98281.94;5053124;28;20457;-74
2022/08/24 07:54:12;;;;;;;5.63;5.23;;;21.10;83.10;;;21.25;63.99;98281.31;5054123;28;20472;-72
2022/08/24 07:56:39;;;;;;;6.47;5.97;;;21.30;83.30;;;21.28;62.96;98247.78;5061637;28;20925;-72
2022/08/24 07:59:06;;;;;;;6.73;6.23;;;21.50;82.50;;;21.59;62.70;98277.91;5055996;28;20453;-70
2022/08/24 08:01:34;;;;;;;5.93;5.47;;;21.60;82.30;;;21.39;63.06;98285.13;5047687;28;20480;-71
2022/08/24 08:04:02;;;;;;;6.00;5.50;;;21.60;82.00;;;21.31;63.01;98283.78;5056440;28;20464;-71
2022/08/24 08:06:31;;;;;;;5.70;5.20;;;21.50;81.90;;;21.56;61.80;98278.47;5047028;28;20542;-71
2022/08/24 08:08:58;;;;;;;6.77;6.27;;;21.70;81.40;;;21.78;61.27;98284.44;5052340;28;20543;-71
2022/08/24 08:11:27;;;;;;;5.93;5.30;;;21.90;81.30;;;21.77;61.14;98288.31;5050258;28;20453;-71
2022/08/24 08:13:55;;;;;;;5.63;5.13;;;21.90;81.00;;;21.94;60.71;98287.13;5052091;28;21089;-72
2022/08/24 08:16:23;;;;;;;6.53;5.53;;;22.00;80.80;;;21.98;60.62;98282.69;5046745;28;20457;-72
2022/08/24 08:18:50;;;;;;;6.00;5.50;;;22.00;80.60;;;22.03;60.54;98284.59;5058210;28;20459;-74
2022/08/24 08:24:16;;;;;;;5.37;4.73;;;22.20;80.30;;;22.15;59.41;98253.97;5056923;28;20457;-72
2022/08/24 08:26:50;;;;;;;6.33;4.93;;;22.30;79.80;;;22.43;58.78;98281.84;5056550;28;21010;-76
2022/08/24 08:29:19;;;;;;;5.40;4.90;;;22.40;79.80;;;22.30;58.93;98289.63;5088414;28;20449;-77
2022/08/24 08:31:47;;;;;;;4.97;4.57;;;22.50;79.10;;;22.31;58.68;98283.00;5080323;28;20457;-76
2022/08/24 08:34:15;;;;;;;5.37;4.97;;;22.50;78.90;;;22.38;58.79;98285.44;5054192;28;20833;-76
2022/08/24 08:36:44;;;;;;;5.73;5.13;;;22.50;78.90;;;22.59;58.74;98288.06;5054000;28;20553;-76
2022/08/24 08:39:16;;;;;;;7.30;4.97;;;22.60;79.10;;;22.81;58.19;98281.28;5057458;28;20464;-75
2022/08/24 08:42:16;;;;;;;5.40;4.73;;;22.80;79.00;;;22.93;57.41;98273.44;5058483;28;21048;-77
2022/08/24 08:45:03;;;;;;;5.13;4.63;;;23.00;78.60;;;23.13;56.39;98277.91;5045840;28;20468;-75
2022/08/24 08:48:12;;;;;;;5.00;4.60;;;23.10;77.90;;;23.15;56.94;98275.69;5051510;28;20513;-76
2022/08/24 08:51:12;;;;;;;5.10;4.70;;;23.10;78.30;;;23.24;56.60;98277.78;5057737;28;20477;-76
2022/08/24 08:54:14;;;;;;;5.63;5.17;;;23.30;77.40;;;23.11;55.97;98271.84;5051901;28;20455;-82
2022/08/24 08:57:03;;;;;;;5.10;4.53;;;23.30;76.70;;;23.17;56.13;98267.94;5046922;28;20465;-75
2022/08/24 08:59:51;;;;;;;4.87;4.50;;;23.30;76.80;;;23.04;56.70;98268.63;5050400;28;20462;-78
2022/08/24 09:02:37;;;;;;;4.67;4.27;;;23.20;76.80;;;23.12;56.34;98273.50;5053157;28;20482;-77
2022/08/24 09:05:50;;;;;;;5.40;4.60;;;23.30;76.70;;;23.49;55.60;98268.41;5051480;28;20762;-74
2022/08/24 09:08:35;;;;;;;4.60;4.20;;;23.40;76.60;;;23.44;54.37;98266.56;5044772;28;20549;-76
2022/08/24 09:11:17;;;;;;;4.30;3.90;;;23.60;76.00;;;23.48;54.34;98264.84;5047483;28;20463;-77
2022/08/24 09:14:12;;;;;;;3.27;3.07;;;23.50;75.20;;;23.64;53.62;98264.66;5047614;28;20543;-73
2022/08/24 09:17:09;;;;;;;3.87;3.57;;;23.70;74.50;;;23.73;52.66;98267.59;5056277;28;21226;-76
2022/08/24 09:19:58;;;;;;;3.57;3.27;;;23.80;74.10;;;23.63;52.89;98252.00;5085608;28;20463;-73
2022/08/24 09:22:26;;;;;;;4.23;3.90;;;23.80;73.40;;;23.68;52.24;98243.66;5051233;28;20956;-71
2022/08/24 09:25:10;;;;;;;3.40;3.10;;;23.90;72.90;;;24.12;52.06;98260.16;5054820;28;20996;-76
2022/08/24 09:27:52;;;;;;;3.43;2.97;;;24.10;73.10;;;24.17;51.15;98257.31;5050538;28;20457;-75
2022/08/24 09:30:24;;;;;;;3.43;3.23;;;24.20;72.10;;;24.15;50.92;98256.81;5052722;28;20612;-75
2022/08/24 09:33:04;;;;;;;3.30;3.10;;;24.20;71.90;;;24.40;50.71;98257.53;5055380;28;20453;-73
2022/08/24 09:35:43;;;;;;;4.50;3.20;;;24.40;71.90;;;24.35;50.77;98252.09;5053644;28;21316;-75
2022/08/24 09:38:23;;;;;;;3.37;3.17;;;24.50;71.10;;;24.31;51.21;98249.91;5056878;28;21049;-74
2022/08/24 09:41:28;;;;;;;4.60;3.50;;;24.40;71.80;;;24.41;51.50;98253.66;5059593;28;20482;-72
2022/08/24 09:44:28;;;;;;;4.23;3.83;;;24.50;71.80;;;24.68;50.47;98246.56;5049576;28;20553;-74
2022/08/24 09:47:26;;;;;;;4.00;3.70;;;24.60;71.80;;;24.92;50.52;98245.59;5055675;28;20465;-74
2022/08/24 09:50:44;;;;;;;3.80;3.40;;;24.80;71.50;;;24.90;50.41;98235.69;5054203;28;20467;-74
2022/08/24 09:54:01;;;;;;;11.00;4.50;;;24.90;71.10;;;24.85;50.31;98230.25;5074475;28;20461;-72
2022/08/24 09:56:50;;;;;;;4.63;4.23;;;25.00;70.70;;;24.27;50.42;98154.22;5069909;28;20897;-72
2022/08/24 09:59:52;;;;;;;4.47;4.17;;;24.90;71.20;;;24.88;49.52;98246.22;5061597;28;20459;-72
2022/08/24 10:02:57;;;;;;;4.03;3.73;;;25.00;70.30;;;25.08;49.99;98238.66;5058514;28;20478;-74
2022/08/24 10:05:35;;;;;;;5.37;4.97;;;25.10;70.80;;;24.64;51.25;98240.00;5057962;28;20462;-72
2022/08/24 10:08:14;;;;;;;4.93;4.40;;;24.90;71.10;;;24.90;50.78;98238.44;5057659;28;21552;-74
2022/08/24 10:10:52;;;;;;;4.30;4.00;;;24.80;71.00;;;25.09;50.24;98237.53;5086687;27;20463;-75
2022/08/24 10:13:30;;;;;;;4.57;4.17;;;25.00;70.70;;;25.27;48.99;98237.75;5055153;28;20936;-73
2022/08/24 10:16:23;;;;;;;4.87;4.57;;;25.20;70.10;;;25.10;49.92;98219.84;5068106;28;20465;-74
2022/08/24 10:19:10;;;;;;;4.70;4.40;;;25.20;69.90;;;25.39;49.57;98215.91;5077671;28;20460;-74
2022/08/24 10:21:52;;;;;;;5.03;4.63;;;25.40;70.30;;;25.87;48.74;98224.91;5114831;28;20454;-74
2022/08/24 10:24:55;;;;;;;4.70;4.30;;;25.70;70.10;;;25.98;47.65;98231.81;5060203;28;21063;-73
2022/08/24 10:27:49;;;;;;;3.77;3.47;;;26.00;69.00;;;25.76;48.53;98229.03;5049161;28;20466;-73
2022/08/24 10:31:01;;;;;;;6.10;4.60;;;26.00;68.60;;;26.25;47.82;98223.75;5051886;28;20471;-74
2022/08/24 10:33:33;;;;;;;4.93;4.53;;;26.20;68.80;;;26.63;47.01;98228.09;5058284;28;20463;-73
2022/08/24 10:36:22;;;;;;;5.00;4.60;;;26.50;68.40;;;26.66;45.79;98227.44;5067374;28;20463;-75
2022/08/24 10:46:15;;;;;;;3.30;3.10;;;26.60;66.50;;;26.20;45.31;98210.84;5051467;28;20452;-72
2022/08/24 10:49:25;;;;;;;3.47;3.27;;;26.40;64.90;;;26.41;44.43;98204.78;5017623;28;20871;-74
2022/08/24 10:52:24;;;;;;;4.33;3.93;;;26.40;64.40;;;27.02;44.11;98209.88;5049855;28;20457;-74
2022/08/24 10:54:53;;;;;;;4.80;4.00;;;26.70;64.70;;;27.13;43.89;98205.66;5053997;28;20566;-72
2022/08/24 10:57:29;;;;;;;4.63;4.23;;;27.10;64.30;;;27.38;43.54;98202.47;5055538;28;20456;-73
2022/08/24 11:00:06;;;;;;;3.70;3.40;;;27.30;64.00;;;27.56;42.63;98206.16;5049091;28;20655;-75